sensor_id;sensor_type;location;lat;lon;timestamp;pressure;altitude;pressure_sealevel;temperature;humidity
35224;BME280;21367;51.930;8.112;2022-12-31T00:00:45;99843.09;;;12.54;100.00
35224;BME280;21367;51.930;8.112;2022-12-31T00:05:49;99842.91;;;12.46;100.00
35224;BME280;21367;51.930;8.112;2022-12-31T00:10:53;99862.38;;;12.32;100.00
35224;BME280;21367;51.930;8.112;2022-12-31T00:16:08;99857.31;;;12.37;100.00
35224;BME280;21367;51.930;8.112;2022-12-31T00:21:13;99860.44;;;12.22;100.00
35224;BME280;21367;51.930;8.112;2022-12-31T00:26:19;99860.88;;;12.42;100.00
35224;BME280;21367;51.930;8.112;2022-12-31T00:31:28;99859.81;;;12.32;100.00
35224;BME280;21367;51.930;8.112;2022-12-31T00:36:34;99844.63;;;12.46;100.00
35224;BME280;21367;51.930;8.112;2022-12-31T00:41:38;99861.59;;;12.36;100.00
35224;BME280;21367;51.930;8.112;2022-12-31T00:46:45;99843.50;;;12.33;100.00
35224;BME280;21367;51.930;8.112;2022-12-31T00:51:48;99848.03;;;12.45;100.00
35224;BME280;21367;51.930;8.112;2022-12-31T00:56:52;99832.34;;;12.33;100.00
35224;BME280;21367;51.930;8.112;2022-12-31T01:01:58;99841.25;;;12.48;100.00
35224;BME280;21367;51.930;8.112;2022-12-31T01:07:02;99840.13;;;12.37;100.00
35224;BME280;21367;51.930;8.112;2022-12-31T01:12:06;99835.13;;;12.43;100.00
35224;BME280;21367;51.930;8.112;2022-12-31T01:17:12;99828.25;;;12.44;100.00
35224;BME280;21367;51.930;8.112;2022-12-31T01:22:16;99832.16;;;12.25;100.00
35224;BME280;21367;51.930;8.112;2022-12-31T01:27:20;99830.03;;;12.46;100.00
35224;BME280;21367;51.930;8.112;2022-12-31T01:32:26;99836.69;;;12.37;100.00
35224;BME280;21367;51.930;8.112;2022-12-31T01:37:30;99826.53;;;12.43;100.00
35224;BME280;21367;51.930;8.112;2022-12-31T01:42:34;99816.81;;;12.31;100.00
35224;BME280;21367;51.930;8.112;2022-12-31T01:47:43;99819.59;;;12.40;100.00
35224;BME280;21367;51.930;8.112;2022-12-31T01:52:51;99816.88;;;12.33;100.00
35224;BME280;21367;51.930;8.112;2022-12-31T01:57:59;99813.63;;;12.43;100.00
35224;BME280;21367;51.930;8.112;2022-12-31T02:03:06;99797.03;;;12.29;100.00
35224;BME280;21367;51.930;8.112;2022-12-31T02:08:10;99785.91;;;12.31;100.00
35224;BME280;21367;51.930;8.112;2022-12-31T02:13:15;99776.19;;;12.16;100.00
35224;BME280;21367;51.930;8.112;2022-12-31T02:18:28;99774.78;;;12.32;100.00
35224;BME280;21367;51.930;8.112;2022-12-31T02:29:36;99762.69;;;12.30;100.00
35224;BME280;21367;51.930;8.112;2022-12-31T02:34:49;99745.78;;;12.42;100.00
35224;BME280;21367;51.930;8.112;2022-12-31T02:39:55;99745.16;;;12.12;100.00
35224;BME280;21367;51.930;8.112;2022-12-31T02:44:59;99736.94;;;12.30;100.00
35224;BME280;21367;51.930;8.112;2022-12-31T02:50:17;99741.22;;;12.29;100.00
35224;BME280;21367;51.930;8.112;2022-12-31T02:55:29;99726.81;;;12.39;100.00
35224;BME280;21367;51.930;8.112;2022-12-31T03:00:39;99707.44;;;12.61;100.00
35224;BME280;21367;51.930;8.112;2022-12-31T03:06:01;99694.63;;;12.64;100.00
35224;BME280;21367;51.930;8.112;2022-12-31T03:11:06;99695.94;;;12.92;100.00
35224;BME280;21367;51.930;8.112;2022-12-31T03:16:29;99707.31;;;13.05;100.00
35224;BME280;21367;51.930;8.112;2022-12-31T03:21:37;99705.94;;;13.25;100.00
35224;BME280;21367;51.930;8.112;2022-12-31T03:26:53;99697.41;;;13.29;100.00
35224;BME280;21367;51.930;8.112;2022-12-31T03:31:57;99702.06;;;13.56;100.00
35224;BME280;21367;51.930;8.112;2022-12-31T03:37:03;99709.09;;;13.63;100.00
35224;BME280;21367;51.930;8.112;2022-12-31T03:42:07;99722.16;;;13.76;100.00
35224;BME280;21367;51.930;8.112;2022-12-31T03:47:11;99719.63;;;13.79;100.00
35224;BME280;21367;51.930;8.112;2022-12-31T03:52:17;99705.03;;;13.82;100.00
35224;BME280;21367;51.930;8.112;2022-12-31T03:57:21;99803.84;;;13.71;100.00
35224;BME280;21367;51.930;8.112;2022-12-31T04:02:26;99813.59;;;13.32;100.00
35224;BME280;21367;51.930;8.112;2022-12-31T04:07:32;99827.06;;;13.19;100.00
35224;BME280;21367;51.930;8.112;2022-12-31T04:12:37;99826.84;;;13.04;100.00
35224;BME280;21367;51.930;8.112;2022-12-31T04:17:41;99830.56;;;12.72;100.00
35224;BME280;21367;51.930;8.112;2022-12-31T04:22:47;99808.06;;;12.65;100.00
35224;BME280;21367;51.930;8.112;2022-12-31T04:27:51;99823.50;;;12.64;100.00
35224;BME280;21367;51.930;8.112;2022-12-31T04:32:54;99820.56;;;12.47;100.00
35224;BME280;21367;51.930;8.112;2022-12-31T04:38:00;99813.19;;;12.21;100.00
35224;BME280;21367;51.930;8.112;2022-12-31T04:43:04;99800.47;;;12.29;100.00
35224;BME280;21367;51.930;8.112;2022-12-31T04:48:08;99809.41;;;12.46;100.00
35224;BME280;21367;51.930;8.112;2022-12-31T04:53:15;99818.72;;;12.40;100.00
35224;BME280;21367;51.930;8.112;2022-12-31T04:58:18;99816.44;;;12.54;100.00
35224;BME280;21367;51.930;8.112;2022-12-31T05:03:24;99825.47;;;12.33;100.00
35224;BME280;21367;51.930;8.112;2022-12-31T05:08:32;99828.91;;;12.34;100.00
35224;BME280;21367;51.930;8.112;2022-12-31T05:13:37;99828.31;;;12.47;100.00
35224;BME280;21367;51.930;8.112;2022-12-31T05:18:40;99824.06;;;12.49;100.00
35224;BME280;21367;51.930;8.112;2022-12-31T05:23:47;99804.59;;;12.63;100.00
35224;BME280;21367;51.930;8.112;2022-12-31T05:28:51;99800.25;;;12.62;100.00
35224;BME280;21367;51.930;8.112;2022-12-31T05:33:56;99786.19;;;12.45;100.00
35224;BME280;21367;51.930;8.112;2022-12-31T05:39:02;99788.41;;;12.72;100.00
35224;BME280;21367;51.930;8.112;2022-12-31T05:44:06;99780.94;;;12.86;100.00
35224;BME280;21367;51.930;8.112;2022-12-31T05:49:09;99770.91;;;13.01;100.00
35224;BME280;21367;51.930;8.112;2022-12-31T05:54:16;99764.38;;;13.23;100.00
35224;BME280;21367;51.930;8.112;2022-12-31T05:59:20;99763.72;;;13.35;100.00
35224;BME280;21367;51.930;8.112;2022-12-31T06:04:24;99758.22;;;13.70;100.00
35224;BME280;21367;51.930;8.112;2022-12-31T06:09:30;99769.72;;;13.93;100.00
35224;BME280;21367;51.930;8.112;2022-12-31T06:14:34;99728.94;;;14.41;100.00
35224;BME280;21367;51.930;8.112;2022-12-31T06:19:38;99745.56;;;14.61;100.00
35224;BME280;21367;51.930;8.112;2022-12-31T06:24:44;99756.28;;;14.98;100.00
35224;BME280;21367;51.930;8.112;2022-12-31T06:29:48;99768.25;;;14.88;100.00
35224;BME280;21367;51.930;8.112;2022-12-31T06:34:51;99764.19;;;15.19;99.86
35224;BME280;21367;51.930;8.112;2022-12-31T06:39:58;99776.34;;;15.23;98.98
35224;BME280;21367;51.930;8.112;2022-12-31T06:45:02;99796.25;;;15.35;98.30
35224;BME280;21367;51.930;8.112;2022-12-31T06:50:07;99811.69;;;15.21;100.00
35224;BME280;21367;51.930;8.112;2022-12-31T06:55:15;99837.56;;;15.20;100.00
35224;BME280;21367;51.930;8.112;2022-12-31T07:00:20;99839.19;;;15.13;100.00
35224;BME280;21367;51.930;8.112;2022-12-31T07:05:27;99848.59;;;15.02;100.00
35224;BME280;21367;51.930;8.112;2022-12-31T07:10:43;99818.31;;;14.93;100.00
35224;BME280;21367;51.930;8.112;2022-12-31T07:16:01;99841.56;;;14.90;100.00
35224;BME280;21367;51.930;8.112;2022-12-31T07:21:09;99839.03;;;14.93;100.00
35224;BME280;21367;51.930;8.112;2022-12-31T07:26:26;99845.00;;;14.88;100.00
35224;BME280;21367;51.930;8.112;2022-12-31T07:31:49;99847.84;;;15.11;100.00
35224;BME280;21367;51.930;8.112;2022-12-31T07:37:01;99860.94;;;15.32;98.40
35224;BME280;21367;51.930;8.112;2022-12-31T07:42:15;99878.38;;;15.48;96.56
35224;BME280;21367;51.930;8.112;2022-12-31T07:47:24;99880.09;;;15.51;95.57
35224;BME280;21367;51.930;8.112;2022-12-31T07:52:29;99875.84;;;15.56;95.41
35224;BME280;21367;51.930;8.112;2022-12-31T07:57:38;99875.06;;;15.66;94.64
35224;BME280;21367;51.930;8.112;2022-12-31T08:02:59;99868.22;;;15.67;94.16
35224;BME280;21367;51.930;8.112;2022-12-31T08:08:17;99884.66;;;15.73;93.88
35224;BME280;21367;51.930;8.112;2022-12-31T08:13:26;99882.13;;;15.84;92.91
35224;BME280;21367;51.930;8.112;2022-12-31T08:18:30;99877.03;;;15.95;91.61
35224;BME280;21367;51.930;8.112;2022-12-31T08:23:39;99905.56;;;15.96;91.42
35224;BME280;21367;51.930;8.112;2022-12-31T08:29:20;99917.75;;;16.13;89.94
35224;BME280;21367;51.930;8.112;2022-12-31T08:34:32;99903.97;;;16.18;89.59
35224;BME280;21367;51.930;8.112;2022-12-31T08:39:53;99916.94;;;16.18;89.56
35224;BME280;21367;51.930;8.112;2022-12-31T08:45:09;99904.00;;;16.23;89.37
35224;BME280;21367;51.930;8.112;2022-12-31T08:50:18;99910.03;;;16.21;89.30
35224;BME280;21367;51.930;8.112;2022-12-31T08:55:22;99928.22;;;16.28;88.29
35224;BME280;21367;51.930;8.112;2022-12-31T09:00:29;99915.31;;;16.36;87.31
35224;BME280;21367;51.930;8.112;2022-12-31T09:05:38;99919.69;;;16.43;86.55
35224;BME280;21367;51.930;8.112;2022-12-31T09:10:52;99931.81;;;16.49;86.06
35224;BME280;21367;51.930;8.112;2022-12-31T09:16:06;99942.22;;;16.56;85.50
35224;BME280;21367;51.930;8.112;2022-12-31T09:21:15;99940.56;;;16.64;84.32
35224;BME280;21367;51.930;8.112;2022-12-31T09:26:33;99933.66;;;16.68;83.94
35224;BME280;21367;51.930;8.112;2022-12-31T09:31:48;99931.06;;;16.71;83.56
35224;BME280;21367;51.930;8.112;2022-12-31T09:36:56;99938.81;;;16.70;83.49
35224;BME280;21367;51.930;8.112;2022-12-31T09:53:25;99987.31;;;16.74;82.81
35224;BME280;21367;51.930;8.112;2022-12-31T09:58:40;99993.41;;;16.79;82.26
35224;BME280;21367;51.930;8.112;2022-12-31T10:04:13;99989.94;;;16.75;82.64
35224;BME280;21367;51.930;8.112;2022-12-31T10:15:07;100033.91;;;16.58;84.48
35224;BME280;21367;51.930;8.112;2022-12-31T10:20:39;100023.44;;;16.48;85.45
35224;BME280;21367;51.930;8.112;2022-12-31T10:26:14;100045.91;;;16.44;86.24
35224;BME280;21367;51.930;8.112;2022-12-31T10:31:38;100070.97;;;16.40;86.54
35224;BME280;21367;51.930;8.112;2022-12-31T10:37:07;100078.63;;;16.28;88.46
35224;BME280;21367;51.930;8.112;2022-12-31T10:48:15;100077.03;;;16.42;87.04
35224;BME280;21367;51.930;8.112;2022-12-31T10:59:41;100085.66;;;16.41;87.86
35224;BME280;21367;51.930;8.112;2022-12-31T11:11:01;100083.00;;;16.34;89.79
35224;BME280;21367;51.930;8.112;2022-12-31T11:22:01;100078.03;;;16.60;86.29
35224;BME280;21367;51.930;8.112;2022-12-31T11:27:20;100091.06;;;16.69;84.98
35224;BME280;21367;51.930;8.112;2022-12-31T11:32:39;100086.91;;;16.88;83.44
35224;BME280;21367;51.930;8.112;2022-12-31T11:37:52;100087.84;;;16.99;82.85
35224;BME280;21367;51.930;8.112;2022-12-31T11:42:58;100062.88;;;17.24;81.26
35224;BME280;21367;51.930;8.112;2022-12-31T11:48:06;100043.84;;;17.34;80.96
35224;BME280;21367;51.930;8.112;2022-12-31T11:53:27;100043.84;;;17.28;80.42
35224;BME280;21367;51.930;8.112;2022-12-31T11:58:35;100059.38;;;17.19;80.79
35224;BME280;21367;51.930;8.112;2022-12-31T12:03:39;100051.59;;;17.18;81.23
35224;BME280;21367;51.930;8.112;2022-12-31T12:08:47;100059.41;;;17.21;80.88
35224;BME280;21367;51.930;8.112;2022-12-31T12:13:51;100042.91;;;17.17;81.48
35224;BME280;21367;51.930;8.112;2022-12-31T12:19:03;100085.22;;;16.98;81.76
35224;BME280;21367;51.930;8.112;2022-12-31T12:24:18;100045.50;;;17.08;81.34
35224;BME280;21367;51.930;8.112;2022-12-31T12:29:26;100091.31;;;17.04;81.65
35224;BME280;21367;51.930;8.112;2022-12-31T12:34:32;100064.50;;;17.05;81.96
35224;BME280;21367;51.930;8.112;2022-12-31T12:39:39;100080.13;;;17.15;80.50
35224;BME280;21367;51.930;8.112;2022-12-31T12:44:43;100078.38;;;17.14;80.60
35224;BME280;21367;51.930;8.112;2022-12-31T12:49:48;100060.25;;;17.23;79.64
35224;BME280;21367;51.930;8.112;2022-12-31T12:55:06;100080.16;;;17.19;79.31
35224;BME280;21367;51.930;8.112;2022-12-31T13:00:17;100081.00;;;17.15;80.08
35224;BME280;21367;51.930;8.112;2022-12-31T13:05:30;100099.16;;;17.17;79.60
35224;BME280;21367;51.930;8.112;2022-12-31T13:11:08;100093.06;;;17.07;80.15
35224;BME280;21367;51.930;8.112;2022-12-31T13:16:24;100078.28;;;16.94;81.02
35224;BME280;21367;51.930;8.112;2022-12-31T13:21:39;100092.06;;;16.83;81.72
35224;BME280;21367;51.930;8.112;2022-12-31T13:26:53;100090.19;;;16.70;82.69
35224;BME280;21367;51.930;8.112;2022-12-31T13:32:01;100098.84;;;16.68;83.27
35224;BME280;21367;51.930;8.112;2022-12-31T13:37:17;100115.06;;;16.45;86.20
35224;BME280;21367;51.930;8.112;2022-12-31T13:42:28;100099.22;;;16.11;89.29
35224;BME280;21367;51.930;8.112;2022-12-31T13:47:38;100110.38;;;16.03;90.75
35224;BME280;21367;51.930;8.112;2022-12-31T13:52:47;100105.22;;;16.07;89.82
35224;BME280;21367;51.930;8.112;2022-12-31T13:58:03;100113.00;;;16.06;89.57
35224;BME280;21367;51.930;8.112;2022-12-31T14:03:12;100106.13;;;16.08;89.54
35224;BME280;21367;51.930;8.112;2022-12-31T14:08:19;100091.38;;;16.02;89.26
35224;BME280;21367;51.930;8.112;2022-12-31T14:13:33;100115.66;;;16.12;89.13
35224;BME280;21367;51.930;8.112;2022-12-31T14:18:46;100123.53;;;16.23;86.92
35224;BME280;21367;51.930;8.112;2022-12-31T14:23:58;100134.88;;;16.35;86.60
35224;BME280;21367;51.930;8.112;2022-12-31T14:29:24;100126.03;;;16.13;87.04
35224;BME280;21367;51.930;8.112;2022-12-31T14:34:33;100139.88;;;16.15;86.65
35224;BME280;21367;51.930;8.112;2022-12-31T14:39:50;100156.16;;;16.04;88.43
35224;BME280;21367;51.930;8.112;2022-12-31T14:45:06;100153.63;;;16.08;87.11
35224;BME280;21367;51.930;8.112;2022-12-31T14:50:21;100142.13;;;15.85;89.02
35224;BME280;21367;51.930;8.112;2022-12-31T14:55:29;100149.88;;;15.82;89.37
35224;BME280;21367;51.930;8.112;2022-12-31T15:00:37;100152.34;;;15.71;89.43
35224;BME280;21367;51.930;8.112;2022-12-31T15:05:50;100142.94;;;15.78;87.98
35224;BME280;21367;51.930;8.112;2022-12-31T15:11:12;100146.34;;;15.75;86.77
35224;BME280;21367;51.930;8.112;2022-12-31T15:16:33;100148.22;;;15.87;85.58
35224;BME280;21367;51.930;8.112;2022-12-31T15:21:55;100153.41;;;15.87;83.59
35224;BME280;21367;51.930;8.112;2022-12-31T15:27:03;100149.13;;;15.90;83.11
35224;BME280;21367;51.930;8.112;2022-12-31T15:32:17;100159.66;;;16.07;81.19
35224;BME280;21367;51.930;8.112;2022-12-31T15:37:30;100161.34;;;16.02;80.22
35224;BME280;21367;51.930;8.112;2022-12-31T15:42:41;100182.88;;;15.96;80.05
35224;BME280;21367;51.930;8.112;2022-12-31T15:47:54;100192.47;;;16.04;79.12
35224;BME280;21367;51.930;8.112;2022-12-31T15:53:01;100190.72;;;16.04;78.53
35224;BME280;21367;51.930;8.112;2022-12-31T15:58:06;100201.78;;;15.88;79.22
35224;BME280;21367;51.930;8.112;2022-12-31T16:03:21;100195.72;;;15.86;80.13
35224;BME280;21367;51.930;8.112;2022-12-31T16:08:28;100198.81;;;15.62;81.75
35224;BME280;21367;51.930;8.112;2022-12-31T16:13:36;100197.97;;;15.61;82.12
35224;BME280;21367;51.930;8.112;2022-12-31T16:18:44;100202.44;;;15.71;82.54
35224;BME280;21367;51.930;8.112;2022-12-31T16:23:50;100194.34;;;15.48;84.12
35224;BME280;21367;51.930;8.112;2022-12-31T16:28:55;100190.97;;;15.57;83.91
35224;BME280;21367;51.930;8.112;2022-12-31T16:34:06;100200.34;;;15.46;84.52
35224;BME280;21367;51.930;8.112;2022-12-31T16:39:25;100204.66;;;15.45;85.47
35224;BME280;21367;51.930;8.112;2022-12-31T16:44:29;100216.66;;;15.40;86.15
35224;BME280;21367;51.930;8.112;2022-12-31T16:49:37;100202.03;;;15.42;86.15
35224;BME280;21367;51.930;8.112;2022-12-31T16:54:43;100205.34;;;15.35;86.00
35224;BME280;21367;51.930;8.112;2022-12-31T16:59:52;100194.50;;;15.61;84.33
35224;BME280;21367;51.930;8.112;2022-12-31T17:05:00;100177.16;;;15.57;84.19
35224;BME280;21367;51.930;8.112;2022-12-31T17:10:15;100179.94;;;15.69;83.26
35224;BME280;21367;51.930;8.112;2022-12-31T17:15:21;100178.94;;;15.59;83.79
35224;BME280;21367;51.930;8.112;2022-12-31T17:20:31;100183.34;;;15.66;83.25
35224;BME280;21367;51.930;8.112;2022-12-31T17:25:36;100172.88;;;15.59;82.57
35224;BME280;21367;51.930;8.112;2022-12-31T17:30:40;100163.44;;;15.62;81.83
35224;BME280;21367;51.930;8.112;2022-12-31T17:35:47;100177.13;;;15.52;81.95
35224;BME280;21367;51.930;8.112;2022-12-31T17:40:53;100165.97;;;15.58;81.15
35224;BME280;21367;51.930;8.112;2022-12-31T17:45:58;100158.22;;;15.59;80.12
35224;BME280;21367;51.930;8.112;2022-12-31T17:51:05;100146.97;;;15.60;79.57
35224;BME280;21367;51.930;8.112;2022-12-31T17:56:10;100146.94;;;15.57;79.09
35224;BME280;21367;51.930;8.112;2022-12-31T18:01:20;100134.09;;;15.66;78.00
35224;BME280;21367;51.930;8.112;2022-12-31T18:06:27;100140.97;;;15.61;78.03
35224;BME280;21367;51.930;8.112;2022-12-31T18:11:31;100145.28;;;15.61;77.56
35224;BME280;21367;51.930;8.112;2022-12-31T18:16:35;100158.34;;;15.68;76.74
35224;BME280;21367;51.930;8.112;2022-12-31T18:21:45;100150.50;;;15.64;76.11
35224;BME280;21367;51.930;8.112;2022-12-31T18:26:48;100153.22;;;15.71;75.72
35224;BME280;21367;51.930;8.112;2022-12-31T18:31:53;100155.69;;;15.64;75.09
35224;BME280;21367;51.930;8.112;2022-12-31T18:36:59;100159.97;;;15.63;74.27
35224;BME280;21367;51.930;8.112;2022-12-31T18:42:03;100138.53;;;15.72;73.87
35224;BME280;21367;51.930;8.112;2022-12-31T18:47:09;100130.75;;;15.72;72.65
35224;BME280;21367;51.930;8.112;2022-12-31T18:52:19;100139.44;;;15.74;72.29
35224;BME280;21367;51.930;8.112;2022-12-31T18:57:23;100139.34;;;15.69;71.48
35224;BME280;21367;51.930;8.112;2022-12-31T19:02:26;100148.94;;;15.75;70.96
35224;BME280;21367;51.930;8.112;2022-12-31T19:07:33;100148.91;;;15.70;70.66
35224;BME280;21367;51.930;8.112;2022-12-31T19:12:37;100140.22;;;15.68;70.79
35224;BME280;21367;51.930;8.112;2022-12-31T19:17:40;100143.59;;;15.66;70.09
35224;BME280;21367;51.930;8.112;2022-12-31T19:22:47;100149.56;;;15.60;69.39
35224;BME280;21367;51.930;8.112;2022-12-31T19:27:50;100147.69;;;15.45;69.43
35224;BME280;21367;51.930;8.112;2022-12-31T19:32:55;100166.63;;;15.43;69.46
35224;BME280;21367;51.930;8.112;2022-12-31T19:38:01;100167.63;;;15.53;68.44
35224;BME280;21367;51.930;8.112;2022-12-31T19:43:08;100146.03;;;15.54;67.26
35224;BME280;21367;51.930;8.112;2022-12-31T19:48:16;100158.81;;;15.41;67.01
35224;BME280;21367;51.930;8.112;2022-12-31T19:53:25;100167.53;;;15.45;66.88
35224;BME280;21367;51.930;8.112;2022-12-31T19:58:29;100158.94;;;15.49;66.70
35224;BME280;21367;51.930;8.112;2022-12-31T20:03:33;100165.94;;;15.56;65.92
35224;BME280;21367;51.930;8.112;2022-12-31T20:08:40;100192.66;;;15.52;65.99
35224;BME280;21367;51.930;8.112;2022-12-31T20:13:46;100184.97;;;15.58;65.07
35224;BME280;21367;51.930;8.112;2022-12-31T20:18:51;100201.16;;;15.42;65.38
35224;BME280;21367;51.930;8.112;2022-12-31T20:23:58;100211.53;;;15.43;65.38
35224;BME280;21367;51.930;8.112;2022-12-31T20:29:01;100183.13;;;15.51;64.85
35224;BME280;21367;51.930;8.112;2022-12-31T20:34:05;100212.47;;;15.50;64.28
35224;BME280;21367;51.930;8.112;2022-12-31T20:39:11;100223.69;;;15.50;64.41
35224;BME280;21367;51.930;8.112;2022-12-31T20:44:15;100231.56;;;15.55;64.38
35224;BME280;21367;51.930;8.112;2022-12-31T20:49:19;100247.97;;;15.57;64.41
35224;BME280;21367;51.930;8.112;2022-12-31T20:54:25;100237.69;;;15.62;64.16
35224;BME280;21367;51.930;8.112;2022-12-31T20:59:29;100241.13;;;15.61;64.22
35224;BME280;21367;51.930;8.112;2022-12-31T21:04:33;100250.47;;;15.49;64.42
35224;BME280;21367;51.930;8.112;2022-12-31T21:09:39;100228.06;;;15.52;64.11
35224;BME280;21367;51.930;8.112;2022-12-31T21:14:42;100249.69;;;15.55;63.93
35224;BME280;21367;51.930;8.112;2022-12-31T21:19:46;100253.00;;;15.48;63.86
35224;BME280;21367;51.930;8.112;2022-12-31T21:24:53;100242.56;;;15.40;63.79
35224;BME280;21367;51.930;8.112;2022-12-31T21:29:56;100255.50;;;15.39;63.16
35224;BME280;21367;51.930;8.112;2022-12-31T21:35:00;100249.41;;;15.37;62.88
35224;BME280;21367;51.930;8.112;2022-12-31T21:40:08;100256.41;;;15.44;62.61
35224;BME280;21367;51.930;8.112;2022-12-31T21:45:13;100254.63;;;15.41;62.59
35224;BME280;21367;51.930;8.112;2022-12-31T21:50:17;100270.31;;;15.49;61.94
35224;BME280;21367;51.930;8.112;2022-12-31T21:55:23;100272.91;;;15.50;61.84
35224;BME280;21367;51.930;8.112;2022-12-31T22:00:39;100271.19;;;15.51;61.47
35224;BME280;21367;51.930;8.112;2022-12-31T22:05:57;100279.13;;;15.62;60.97
35224;BME280;21367;51.930;8.112;2022-12-31T22:11:05;100281.72;;;15.62;60.76
35224;BME280;21367;51.930;8.112;2022-12-31T22:16:09;100288.69;;;15.64;61.39
35224;BME280;21367;51.930;8.112;2022-12-31T22:21:15;100286.31;;;15.78;60.72
35224;BME280;21367;51.930;8.112;2022-12-31T22:26:23;100294.88;;;15.74;60.85
35224;BME280;21367;51.930;8.112;2022-12-31T22:31:28;100289.66;;;15.72;60.76
35224;BME280;21367;51.930;8.112;2022-12-31T22:36:32;100297.78;;;15.97;59.97
35224;BME280;21367;51.930;8.112;2022-12-31T22:41:38;100307.16;;;15.86;60.74
35224;BME280;21367;51.930;8.112;2022-12-31T22:46:42;100312.44;;;15.93;60.18
35224;BME280;21367;51.930;8.112;2022-12-31T22:51:48;100323.44;;;15.77;60.55
35224;BME280;21367;51.930;8.112;2022-12-31T22:56:55;100328.63;;;15.77;61.14
35224;BME280;21367;51.930;8.112;2022-12-31T23:01:58;100333.03;;;15.83;60.78
35224;BME280;21367;51.930;8.112;2022-12-31T23:07:02;100334.63;;;15.75;60.71
35224;BME280;21367;51.930;8.112;2022-12-31T23:12:10;100334.63;;;15.76;60.46
35224;BME280;21367;51.930;8.112;2022-12-31T23:17:15;100345.84;;;15.75;60.43
35224;BME280;21367;51.930;8.112;2022-12-31T23:22:32;100339.59;;;15.62;61.44
35224;BME280;21367;51.930;8.112;2022-12-31T23:27:50;100333.50;;;15.60;61.30
35224;BME280;21367;51.930;8.112;2022-12-31T23:32:54;100342.22;;;15.65;61.34
35224;BME280;21367;51.930;8.112;2022-12-31T23:37:57;100340.44;;;15.63;61.32
35224;BME280;21367;51.930;8.112;2022-12-31T23:43:05;100338.63;;;15.57;61.11
35224;BME280;21367;51.930;8.112;2022-12-31T23:48:09;100337.16;;;15.71;60.72
35224;BME280;21367;51.930;8.112;2022-12-31T23:53:13;100336.19;;;15.66;60.44
35224;BME280;21367;51.930;8.112;2022-12-31T23:58:19;100336.50;;;15.83;60.49
